createdAt,value
2023-03-03T00:01:19.107Z,9.40
2023-03-03T00:03:46.554Z,9.98
2023-03-03T00:06:14.925Z,9.25
2023-03-03T00:08:42.718Z,9.30
2023-03-03T00:11:10.459Z,8.63
2023-03-03T00:13:55.491Z,9.85
2023-03-03T00:16:35.687Z,9.32
2023-03-03T00:19:03.317Z,8.32
2023-03-03T00:21:42.062Z,9.30
2023-03-03T00:24:23.452Z,9.48
2023-03-03T00:26:54.830Z,9.15
2023-03-03T00:29:28.688Z,9.38
2023-03-03T00:32:00.249Z,8.63
2023-03-03T00:34:30.768Z,9.10
2023-03-03T00:36:59.111Z,9.23
2023-03-03T00:39:39.234Z,9.43
2023-03-03T00:42:15.131Z,9.52
2023-03-03T00:44:59.129Z,9.82
2023-03-03T00:47:42.866Z,9.60
2023-03-03T00:50:10.100Z,9.75
2023-03-03T00:52:40.193Z,10.63
2023-03-03T00:55:08.771Z,9.85
2023-03-03T00:57:36.130Z,9.77
2023-03-03T01:00:05.904Z,9.10
2023-03-03T01:02:33.782Z,9.95
2023-03-03T01:05:01.385Z,9.88
2023-03-03T01:07:28.623Z,9.90
2023-03-03T01:09:56.065Z,9.23
2023-03-03T01:12:24.457Z,9.40
2023-03-03T01:14:54.993Z,9.55
2023-03-03T01:17:22.498Z,9.30
2023-03-03T01:19:50.168Z,9.38
2023-03-03T01:22:17.593Z,9.52
2023-03-03T01:24:44.902Z,10.10
2023-03-03T01:27:12.302Z,8.88
2023-03-03T01:29:39.629Z,9.80
2023-03-03T01:32:07.179Z,9.30
2023-03-03T01:34:34.485Z,8.93
2023-03-03T01:37:01.929Z,8.65
2023-03-03T01:39:29.187Z,9.18
2023-03-03T01:41:56.765Z,9.50
2023-03-03T01:44:24.304Z,9.38
2023-03-03T01:47:05.904Z,9.60
2023-03-03T01:49:40.338Z,10.05
2023-03-03T01:52:17.606Z,8.95
2023-03-03T01:54:50.689Z,10.00
2023-03-03T01:57:24.400Z,9.88
2023-03-03T01:59:52.880Z,9.90
2023-03-03T02:02:20.722Z,9.75
2023-03-03T02:04:49.603Z,9.18
2023-03-03T02:07:19.118Z,9.82
2023-03-03T02:10:05.358Z,9.57
2023-03-03T02:13:05.769Z,9.77
2023-03-03T02:15:38.380Z,9.50
2023-03-03T02:18:11.118Z,9.50
2023-03-03T02:20:48.508Z,8.68
2023-03-03T02:23:32.863Z,9.80
2023-03-03T02:26:11.255Z,9.75
2023-03-03T02:28:40.802Z,9.75
2023-03-03T02:31:13.684Z,9.73
2023-03-03T02:33:48.256Z,9.35
2023-03-03T02:36:27.675Z,9.52
2023-03-03T02:39:22.150Z,10.27
2023-03-03T02:42:20.441Z,9.45
2023-03-03T02:44:52.099Z,9.73
2023-03-03T02:47:19.386Z,9.80
2023-03-03T02:49:46.893Z,9.93
2023-03-03T02:52:15.078Z,9.90
2023-03-03T02:54:45.911Z,9.88
2023-03-03T02:57:13.256Z,10.07
2023-03-03T02:59:40.712Z,11.25
2023-03-03T03:02:14.086Z,10.52
2023-03-03T03:04:42.656Z,9.77
2023-03-03T03:07:12.042Z,10.25
2023-03-03T03:09:40.134Z,10.40
2023-03-03T03:12:07.786Z,9.90
2023-03-03T03:14:36.092Z,9.55
2023-03-03T03:17:05.075Z,9.90
2023-03-03T03:19:32.340Z,10.32
2023-03-03T03:22:02.272Z,9.65
2023-03-03T03:24:30.907Z,10.32
2023-03-03T03:27:03.216Z,10.65
2023-03-03T03:29:30.540Z,10.38
2023-03-03T03:31:58.196Z,10.00
2023-03-03T03:34:33.716Z,9.70
2023-03-03T03:37:01.074Z,9.45
2023-03-03T03:39:37.051Z,10.50
2023-03-03T03:42:04.432Z,10.15
2023-03-03T03:45:07.377Z,10.23
2023-03-03T03:47:34.858Z,10.23
2023-03-03T03:50:02.154Z,10.00
2023-03-03T03:52:29.835Z,9.85
2023-03-03T03:54:57.193Z,10.38
2023-03-03T03:57:26.638Z,10.77
2023-03-03T03:59:54.480Z,10.48
2023-03-03T04:02:22.249Z,10.05
2023-03-03T04:04:49.677Z,10.75
2023-03-03T04:07:17.661Z,10.63
2023-03-03T04:09:45.244Z,9.25
2023-03-03T04:12:13.013Z,10.18
2023-03-03T04:14:40.827Z,10.38
2023-03-03T04:17:08.509Z,10.20
2023-03-03T04:19:36.104Z,10.02
2023-03-03T04:22:07.169Z,9.73
2023-03-03T04:24:34.739Z,9.05
2023-03-03T04:27:02.906Z,9.43
2023-03-03T04:29:30.479Z,9.93
2023-03-03T04:31:58.072Z,11.27
2023-03-03T04:34:25.614Z,10.23
2023-03-03T04:36:54.128Z,11.10
2023-03-03T04:39:21.667Z,10.95
2023-03-03T04:41:49.265Z,10.75
2023-03-03T04:44:16.669Z,10.00
2023-03-03T04:46:44.308Z,10.20
2023-03-03T04:49:12.692Z,9.82
2023-03-03T04:51:41.869Z,11.50
2023-03-03T04:54:09.704Z,11.35
2023-03-03T04:56:36.982Z,9.82
2023-03-03T04:59:05.123Z,10.80
2023-03-03T05:01:32.995Z,11.40
2023-03-03T05:04:01.094Z,10.93
2023-03-03T05:06:28.471Z,10.48
2023-03-03T05:08:55.718Z,9.50
2023-03-03T05:11:24.178Z,12.13
2023-03-03T05:13:51.520Z,11.25
2023-03-03T05:16:19.080Z,11.50
2023-03-03T05:18:48.053Z,10.80
2023-03-03T05:21:15.298Z,11.18
2023-03-03T05:23:43.977Z,11.45
2023-03-03T05:26:11.225Z,10.65
2023-03-03T05:28:38.604Z,10.93
2023-03-03T05:31:06.028Z,10.52
2023-03-03T05:33:34.417Z,10.57
2023-03-03T05:36:01.789Z,11.43
2023-03-03T05:38:29.106Z,10.90
2023-03-03T05:40:56.408Z,10.68
2023-03-03T05:43:23.690Z,10.85
2023-03-03T05:45:58.605Z,10.98
2023-03-03T05:48:25.906Z,11.35
2023-03-03T05:50:53.226Z,10.23
2023-03-03T05:53:20.517Z,10.90
2023-03-03T05:55:47.813Z,11.23
2023-03-03T05:58:15.041Z,11.27
2023-03-03T06:00:43.867Z,11.80
2023-03-03T06:03:11.241Z,10.13
2023-03-03T06:05:38.712Z,10.68
2023-03-03T06:08:06.048Z,10.48
2023-03-03T06:10:33.398Z,9.77
2023-03-03T06:13:04.714Z,10.88
2023-03-03T06:15:32.026Z,11.35
2023-03-03T06:17:59.740Z,10.40
2023-03-03T06:20:27.034Z,11.00
2023-03-03T06:22:54.550Z,11.85
2023-03-03T06:25:21.850Z,12.20
2023-03-03T06:27:49.087Z,11.77
2023-03-03T06:30:16.854Z,12.38
2023-03-03T06:32:44.385Z,12.25
2023-03-03T06:35:12.786Z,10.60
2023-03-03T06:37:40.486Z,10.15
2023-03-03T06:40:08.372Z,9.65
2023-03-03T06:42:37.210Z,10.65
2023-03-03T06:45:05.089Z,11.23
2023-03-03T06:47:34.068Z,8.90
2023-03-03T06:50:01.515Z,10.38
2023-03-03T06:52:28.951Z,11.05
2023-03-03T06:54:59.214Z,11.75
2023-03-03T06:57:32.324Z,12.88
2023-03-03T07:00:12.046Z,11.85
2023-03-03T07:02:39.326Z,11.70
2023-03-03T07:05:14.998Z,11.55
2023-03-03T07:07:42.495Z,12.52
2023-03-03T07:10:28.869Z,11.18
2023-03-03T07:13:07.092Z,11.68
2023-03-03T07:15:37.345Z,11.48
2023-03-03T07:18:16.220Z,12.38
2023-03-03T07:20:44.131Z,12.98
2023-03-03T07:23:29.696Z,11.50
2023-03-03T07:25:56.937Z,12.32
2023-03-03T07:28:30.850Z,12.00
2023-03-03T07:30:58.526Z,12.77
2023-03-03T07:33:42.822Z,12.45
2023-03-03T07:36:35.736Z,12.23
2023-03-03T07:39:16.765Z,12.98
2023-03-03T07:41:44.052Z,13.02
2023-03-03T07:44:27.036Z,12.73
2023-03-03T07:46:54.310Z,12.60
2023-03-03T07:49:29.874Z,13.07
2023-03-03T07:51:58.309Z,14.38
2023-03-03T07:54:29.874Z,13.52
2023-03-03T07:59:55.100Z,12.07
2023-03-03T08:02:45.862Z,12.77
2023-03-03T08:05:42.434Z,13.40
2023-03-03T08:08:09.832Z,13.82
2023-03-03T08:10:49.795Z,13.15
2023-03-03T08:13:24.130Z,13.00
2023-03-03T08:15:56.101Z,13.65
2023-03-03T08:18:28.283Z,13.45
2023-03-03T08:21:01.175Z,13.02
2023-03-03T08:23:28.568Z,13.02
2023-03-03T08:25:55.967Z,13.93
2023-03-03T08:28:23.590Z,13.35
2023-03-03T08:30:54.401Z,12.98
2023-03-03T08:33:27.525Z,11.90
2023-03-03T08:35:54.993Z,12.05
2023-03-03T08:38:23.238Z,11.77
2023-03-03T08:40:51.094Z,12.07
2023-03-03T08:43:21.646Z,12.25
2023-03-03T08:45:50.646Z,11.40
2023-03-03T08:48:18.660Z,11.77
2023-03-03T08:50:46.981Z,11.65
2023-03-03T08:53:14.824Z,11.18
2023-03-03T08:55:43.016Z,10.20
2023-03-03T08:58:10.639Z,11.57
2023-03-03T09:00:38.587Z,9.40
2023-03-03T09:03:07.688Z,9.98
2023-03-03T09:05:37.393Z,9.27
2023-03-03T09:08:05.840Z,8.32
2023-03-03T09:10:34.718Z,8.43
2023-03-03T09:13:17.605Z,7.97
2023-03-03T09:15:45.724Z,7.97
2023-03-03T09:18:35.607Z,8.02
2023-03-03T09:21:03.146Z,7.50
2023-03-03T09:23:33.905Z,7.95
2023-03-03T09:26:28.384Z,8.20
2023-03-03T09:29:15.672Z,7.30
2023-03-03T09:31:49.405Z,9.05
2023-03-03T09:34:25.157Z,8.40
2023-03-03T09:36:55.311Z,7.97
2023-03-03T09:39:22.604Z,6.82
2023-03-03T09:42:19.391Z,7.55
2023-03-03T09:45:18.130Z,7.47
2023-03-03T09:48:07.001Z,7.53
2023-03-03T09:50:53.591Z,7.45
2023-03-03T09:53:47.979Z,7.63
2023-03-03T09:56:56.928Z,7.78
2023-03-03T09:59:49.978Z,7.28
2023-03-03T10:02:39.202Z,7.57
2023-03-03T10:05:39.177Z,8.07
2023-03-03T10:08:44.102Z,7.38
2023-03-03T10:11:35.975Z,8.77
2023-03-03T10:16:34.038Z,8.93
2023-03-03T10:19:27.282Z,8.65
2023-03-03T10:22:24.570Z,7.70
2023-03-03T10:25:22.802Z,9.18
2023-03-03T10:27:53.245Z,9.10
2023-03-03T10:30:58.025Z,10.80
2023-03-03T10:33:38.212Z,10.00
2023-03-03T10:36:15.458Z,11.15
2023-03-03T10:39:08.792Z,10.95
2023-03-03T10:41:45.229Z,9.75
2023-03-03T10:44:21.856Z,9.80
2023-03-03T10:47:15.816Z,8.68
2023-03-03T10:50:11.132Z,7.75
2023-03-03T10:53:02.518Z,8.98
2023-03-03T10:56:11.274Z,9.35
2023-03-03T10:59:08.012Z,8.50
2023-03-03T11:01:45.561Z,7.93
2023-03-03T11:04:32.604Z,8.35
2023-03-03T11:07:15.429Z,7.30
2023-03-03T11:10:21.433Z,7.00
2023-03-03T11:12:58.605Z,7.63
2023-03-03T11:15:56.548Z,7.68
2023-03-03T11:18:41.799Z,7.55
2023-03-03T11:21:09.249Z,8.52
2023-03-03T11:24:33.588Z,7.97
2023-03-03T11:27:28.609Z,8.00
2023-03-03T11:30:02.988Z,7.57
2023-03-03T11:32:54.131Z,11.15
2023-03-03T11:35:31.388Z,7.38
2023-03-03T11:38:26.113Z,7.47
2023-03-03T11:41:07.089Z,8.07
2023-03-03T11:44:18.915Z,8.20
2023-03-03T11:46:54.323Z,8.57
2023-03-03T11:49:22.812Z,8.15
2023-03-03T11:52:02.227Z,8.40
2023-03-03T11:54:36.114Z,8.98
2023-03-03T11:57:30.034Z,8.23
2023-03-03T12:00:09.637Z,8.25
2023-03-03T12:03:04.103Z,8.25
2023-03-03T12:05:34.552Z,9.10
2023-03-03T12:08:36.444Z,8.43
2023-03-03T12:11:15.792Z,7.80
2023-03-03T12:14:07.997Z,8.13
2023-03-03T12:17:01.502Z,7.10
2023-03-03T12:19:55.218Z,7.68
2023-03-03T12:22:35.826Z,7.40
2023-03-03T12:25:27.569Z,8.30
2023-03-03T12:28:12.261Z,8.32
2023-03-03T12:31:00.937Z,8.23
2023-03-03T12:33:57.073Z,8.68
2023-03-03T12:36:51.981Z,8.60
2023-03-03T12:39:45.371Z,8.35
2023-03-03T12:42:40.094Z,8.88
2023-03-03T12:45:24.785Z,8.68
2023-03-03T12:48:01.317Z,8.50
2023-03-03T12:50:37.668Z,8.75
2023-03-03T12:53:28.596Z,8.15
2023-03-03T12:56:13.802Z,8.20
2023-03-03T12:59:01.405Z,8.38
2023-03-03T13:01:40.829Z,8.68
2023-03-03T13:04:35.655Z,9.50
2023-03-03T13:07:21.735Z,9.15
2023-03-03T13:10:18.583Z,8.20
2023-03-03T13:12:48.143Z,8.35
2023-03-03T13:16:06.771Z,8.57
2023-03-03T13:19:09.094Z,7.90
2023-03-03T13:24:34.230Z,8.82
2023-03-03T13:27:11.094Z,8.10
2023-03-03T13:29:43.643Z,8.95
2023-03-03T13:32:43.542Z,8.77
2023-03-03T13:35:41.283Z,8.15
2023-03-03T13:38:14.399Z,8.57
2023-03-03T13:40:52.626Z,9.10
2023-03-03T13:43:24.670Z,9.32
2023-03-03T13:46:07.401Z,8.85
2023-03-03T13:48:43.986Z,8.52
2023-03-03T13:51:23.166Z,9.95
2023-03-03T13:54:12.083Z,9.63
2023-03-03T13:57:13.568Z,9.23
2023-03-03T13:59:47.229Z,8.77
2023-03-03T14:02:38.733Z,8.60
2023-03-03T14:05:08.836Z,9.60
2023-03-03T14:08:03.614Z,9.25
2023-03-03T14:11:09.685Z,9.55
2023-03-03T14:13:55.319Z,9.00
2023-03-03T14:16:51.267Z,8.75
2023-03-03T14:19:22.048Z,9.25
2023-03-03T14:21:52.650Z,9.48
2023-03-03T14:24:26.565Z,9.27
2023-03-03T14:26:56.973Z,8.82
2023-03-03T14:29:29.986Z,7.80
2023-03-03T14:32:00.206Z,8.85
2023-03-03T14:34:37.487Z,9.55
2023-03-03T14:37:23.333Z,8.80
2023-03-03T14:40:09.751Z,8.68
2023-03-03T14:43:08.219Z,8.38
2023-03-03T14:45:37.561Z,8.25
2023-03-03T14:48:32.778Z,8.43
2023-03-03T14:51:24.809Z,8.98
2023-03-03T14:56:37.687Z,9.70
2023-03-03T14:59:17.317Z,8.50
2023-03-03T15:01:45.421Z,8.57
2023-03-03T15:04:34.371Z,8.50
2023-03-03T15:07:28.804Z,8.38
2023-03-03T15:09:57.606Z,9.25
2023-03-03T15:12:43.361Z,8.48
2023-03-03T15:15:11.650Z,8.48
2023-03-03T15:18:02.830Z,8.43
2023-03-03T15:20:33.035Z,9.07
2023-03-03T15:23:18.723Z,8.88
2023-03-03T15:26:23.376Z,9.20
2023-03-03T15:28:53.966Z,9.10
2023-03-03T15:31:42.430Z,8.75
2023-03-03T15:34:23.250Z,9.43
2023-03-03T15:37:01.614Z,9.27
2023-03-03T15:39:38.154Z,10.30
2023-03-03T15:42:12.262Z,9.07
2023-03-03T15:44:53.357Z,8.32
2023-03-03T15:47:42.335Z,9.93
2023-03-03T15:50:19.221Z,8.30
2023-03-03T15:53:10.725Z,9.05
2023-03-03T15:55:56.734Z,8.68
2023-03-03T15:59:03.429Z,8.52
2023-03-03T16:01:41.432Z,8.05
2023-03-03T16:04:16.058Z,7.68
2023-03-03T16:07:08.041Z,7.18
2023-03-03T16:09:47.715Z,6.97
2023-03-03T16:12:34.529Z,7.53
2023-03-03T16:15:16.829Z,8.48
2023-03-03T16:17:50.058Z,9.32
2023-03-03T16:20:20.959Z,8.48
2023-03-03T16:23:13.693Z,8.38
2023-03-03T16:26:14.429Z,7.40
2023-03-03T16:29:07.073Z,7.45
2023-03-03T16:31:40.383Z,7.13
2023-03-03T16:34:14.487Z,6.93
2023-03-03T16:37:10.215Z,7.30
2023-03-03T16:39:49.730Z,7.85
2023-03-03T16:42:29.322Z,8.35
2023-03-03T16:45:15.676Z,9.93
2023-03-03T16:47:58.701Z,11.05
2023-03-03T16:50:46.523Z,12.43
2023-03-03T16:53:31.797Z,11.00
2023-03-03T16:56:16.381Z,11.00
2023-03-03T16:59:04.842Z,10.15
2023-03-03T17:01:42.195Z,10.00
2023-03-03T17:04:34.252Z,9.30
2023-03-03T17:07:33.249Z,9.80
2023-03-03T17:10:30.625Z,8.40
2023-03-03T17:13:23.950Z,7.78
2023-03-03T17:16:26.016Z,8.52
2023-03-03T17:19:12.240Z,7.68
2023-03-03T17:22:12.991Z,8.25
2023-03-03T17:25:01.240Z,7.78
2023-03-03T17:28:07.114Z,7.63
2023-03-03T17:30:34.700Z,7.40
2023-03-03T17:33:14.375Z,7.97
2023-03-03T17:35:51.320Z,8.65
2023-03-03T17:38:42.142Z,9.80
2023-03-03T17:41:22.377Z,9.73
2023-03-03T17:44:12.752Z,8.98
2023-03-03T17:46:54.254Z,8.65
2023-03-03T17:49:41.634Z,9.00
2023-03-03T17:52:48.895Z,9.90
2023-03-03T17:55:31.679Z,8.48
2023-03-03T17:58:41.919Z,9.68
2023-03-03T18:01:27.615Z,8.95
2023-03-03T18:04:18.279Z,10.10
2023-03-03T18:07:19.212Z,10.20
2023-03-03T18:10:14.947Z,10.82
2023-03-03T18:13:07.826Z,9.70
2023-03-03T18:15:56.004Z,9.80
2023-03-03T18:18:52.939Z,11.75
2023-03-03T18:21:35.512Z,10.25
2023-03-03T18:24:30.398Z,10.60
2023-03-03T18:27:25.985Z,9.90
2023-03-03T18:30:10.149Z,9.65
2023-03-03T18:32:58.098Z,10.63
2023-03-03T18:35:35.249Z,9.15
2023-03-03T18:38:26.396Z,8.68
2023-03-03T18:41:18.882Z,8.98
2023-03-03T18:43:48.797Z,9.95
2023-03-03T18:46:23.263Z,9.32
2023-03-03T18:48:56.615Z,8.93
2023-03-03T18:51:40.204Z,8.95
2023-03-03T18:54:28.319Z,9.48
2023-03-03T18:57:02.975Z,9.07
2023-03-03T18:59:37.460Z,8.73
2023-03-03T19:02:30.535Z,13.73
2023-03-03T19:05:18.991Z,11.82
2023-03-03T19:08:24.014Z,14.77
2023-03-03T19:11:20.268Z,16.58
2023-03-03T19:13:49.852Z,15.32
2023-03-03T19:16:29.054Z,14.30
2023-03-03T19:18:57.245Z,14.85
2023-03-03T19:21:37.782Z,13.88
2023-03-03T19:24:17.826Z,14.48
2023-03-03T19:27:07.979Z,14.95
2023-03-03T19:29:59.174Z,13.38
2023-03-03T19:32:36.373Z,12.63
2023-03-03T19:35:23.552Z,12.90
2023-03-03T19:38:10.354Z,12.88
2023-03-03T19:40:50.312Z,11.50
2023-03-03T19:43:27.608Z,12.70
2023-03-03T19:46:32.633Z,11.65
2023-03-03T19:49:29.694Z,10.77
2023-03-03T19:51:58.138Z,12.27
2023-03-03T19:54:59.563Z,11.05
2023-03-03T19:57:57.163Z,10.63
2023-03-03T20:01:09.559Z,9.73
2023-03-03T20:04:14.172Z,10.05
2023-03-03T20:07:21.645Z,10.45
2023-03-03T20:10:25.094Z,10.55
2023-03-03T20:13:00.635Z,10.13
2023-03-03T20:16:11.845Z,10.60
2023-03-03T20:18:49.501Z,10.70
2023-03-03T20:21:40.857Z,9.85
2023-03-03T20:24:32.768Z,9.23
2023-03-03T20:27:46.648Z,9.30
2023-03-03T20:30:15.290Z,9.57
2023-03-03T20:32:52.819Z,10.52
2023-03-03T20:35:28.809Z,9.77
2023-03-03T20:38:18.807Z,9.75
2023-03-03T20:41:16.663Z,9.25
2023-03-03T20:44:06.915Z,9.98
2023-03-03T20:46:57.850Z,10.00
2023-03-03T20:49:49.404Z,9.65
2023-03-03T20:52:38.704Z,9.50
2023-03-03T20:55:28.464Z,9.70
2023-03-03T20:58:18.409Z,9.85
2023-03-03T21:01:11.722Z,10.88
2023-03-03T21:03:43.776Z,11.77
2023-03-03T21:06:20.456Z,10.32
2023-03-03T21:08:57.773Z,10.85
2023-03-03T21:11:43.414Z,11.07
2023-03-03T21:14:21.153Z,10.05
2023-03-03T21:16:51.016Z,10.48
2023-03-03T21:19:30.936Z,10.27
2023-03-03T21:22:02.168Z,9.48
2023-03-03T21:27:31.774Z,10.82
2023-03-03T21:30:08.478Z,10.75
2023-03-03T21:32:42.402Z,10.13
2023-03-03T21:35:19.263Z,10.15
2023-03-03T21:37:53.798Z,11.43
2023-03-03T21:40:29.629Z,11.95
2023-03-03T21:43:00.662Z,12.40
2023-03-03T21:45:30.238Z,11.75
2023-03-03T21:48:00.693Z,11.45
2023-03-03T21:50:32.853Z,12.05
2023-03-03T21:53:00.833Z,12.07
2023-03-03T21:55:28.191Z,10.73
2023-03-03T21:57:55.747Z,11.93
2023-03-03T22:00:23.333Z,12.52
2023-03-03T22:02:50.713Z,11.82
2023-03-03T22:05:18.054Z,11.25
2023-03-03T22:07:45.641Z,11.00
2023-03-03T22:10:13.173Z,9.70
2023-03-03T22:12:40.556Z,10.27
2023-03-03T22:15:08.626Z,10.75
2023-03-03T22:17:35.975Z,10.38
2023-03-03T22:20:03.735Z,10.10
2023-03-03T22:22:31.221Z,10.25
2023-03-03T22:24:58.605Z,10.23
2023-03-03T22:27:26.004Z,10.05
2023-03-03T22:29:53.537Z,10.70
2023-03-03T22:32:20.900Z,10.95
2023-03-03T22:34:48.504Z,10.38
2023-03-03T22:37:15.811Z,10.77
2023-03-03T22:39:43.130Z,10.93
2023-03-03T22:42:11.352Z,10.02
2023-03-03T22:44:38.909Z,9.70
2023-03-03T22:47:06.355Z,9.82
2023-03-03T22:49:33.820Z,8.98
2023-03-03T22:52:02.836Z,10.32
2023-03-03T22:54:30.221Z,9.73
2023-03-03T22:56:57.681Z,9.30
2023-03-03T22:59:25.127Z,8.75
2023-03-03T23:01:52.447Z,10.98
2023-03-03T23:04:19.881Z,9.77
2023-03-03T23:06:47.364Z,9.80
2023-03-03T23:09:14.942Z,10.07
2023-03-03T23:11:42.304Z,8.32
2023-03-03T23:14:09.601Z,9.00
2023-03-03T23:16:36.837Z,9.65
2023-03-03T23:19:04.117Z,8.68
2023-03-03T23:21:31.746Z,9.10
2023-03-03T23:23:59.000Z,8.90
2023-03-03T23:26:26.427Z,9.98
2023-03-03T23:28:53.676Z,9.13
2023-03-03T23:31:21.197Z,7.70
2023-03-03T23:33:48.599Z,9.13
2023-03-03T23:36:15.841Z,9.20
2023-03-03T23:38:43.319Z,7.75
2023-03-03T23:41:10.576Z,10.00
2023-03-03T23:43:37.955Z,9.00
2023-03-03T23:46:05.391Z,9.10
2023-03-03T23:48:32.982Z,8.27
2023-03-03T23:51:01.831Z,9.15
2023-03-03T23:53:29.230Z,9.52
2023-03-03T23:55:56.473Z,7.85
2023-03-03T23:58:25.428Z,7.90
